createdAt,value
2017-03-02T00:00:43.271Z,21.68
2017-03-02T00:01:43.300Z,21.56
2017-03-02T00:02:42.929Z,21.62
2017-03-02T00:03:42.953Z,21.59
2017-03-02T00:04:43.385Z,21.59
2017-03-02T00:05:43.406Z,21.58
2017-03-02T00:06:42.641Z,21.65
2017-03-02T00:07:43.068Z,21.61
2017-03-02T00:08:43.132Z,21.62
2017-03-02T00:09:43.533Z,21.54
2017-03-02T00:10:42.746Z,21.61
2017-03-02T00:11:43.832Z,21.62
2017-03-02T00:12:43.200Z,21.64
2017-03-02T00:13:43.249Z,21.56
2017-03-02T00:14:43.662Z,21.61
2017-03-02T00:15:42.881Z,21.59
2017-03-02T00:16:43.582Z,21.56
2017-03-02T00:17:43.751Z,21.58
2017-03-02T00:18:43.756Z,21.62
2017-03-02T00:19:43.408Z,21.56
2017-03-02T00:20:43.833Z,21.61
2017-03-02T00:21:43.790Z,21.53
2017-03-02T00:22:43.075Z,21.54
2017-03-02T00:23:43.511Z,21.62
2017-03-02T00:24:43.528Z,21.59
2017-03-02T00:25:43.950Z,21.53
2017-03-02T00:26:43.842Z,21.59
2017-03-02T00:27:44.021Z,21.49
2017-03-02T00:28:43.634Z,21.54
2017-03-02T00:29:43.667Z,21.56
2017-03-02T00:30:43.688Z,21.53
2017-03-02T00:31:44.372Z,21.46
2017-03-02T00:32:44.142Z,21.54
2017-03-02T00:33:43.374Z,21.59
2017-03-02T00:34:43.806Z,21.52
2017-03-02T00:35:44.231Z,21.58
2017-03-02T00:36:43.700Z,21.49
2017-03-02T00:37:44.286Z,21.43
2017-03-02T00:38:43.918Z,21.49
2017-03-02T00:39:44.331Z,21.58
2017-03-02T00:40:44.351Z,21.49
2017-03-02T00:41:44.660Z,21.52
2017-03-02T00:42:44.408Z,21.49
2017-03-02T00:43:44.437Z,21.47
2017-03-02T00:44:44.469Z,21.5
2017-03-02T00:45:44.498Z,21.46
2017-03-02T00:46:44.783Z,21.52
2017-03-02T00:47:44.152Z,21.43
2017-03-02T00:48:44.186Z,21.5
2017-03-02T00:49:43.817Z,21.4
2017-03-02T00:50:44.626Z,21.44
2017-03-02T00:51:44.111Z,21.5
2017-03-02T00:52:43.907Z,21.42
2017-03-02T00:53:44.704Z,21.42
2017-03-02T00:54:44.361Z,21.43
2017-03-02T00:55:44.381Z,21.44
2017-03-02T00:56:44.246Z,21.4
2017-03-02T00:57:44.435Z,21.43
2017-03-02T00:58:44.487Z,21.44
2017-03-02T00:59:44.877Z,21.43
2017-03-02T01:00:44.910Z,21.43
2017-03-02T01:01:44.774Z,21.42
2017-03-02T01:02:44.950Z,21.38
2017-03-02T01:03:44.587Z,21.32
2017-03-02T01:04:44.612Z,21.42
2017-03-02T01:05:44.637Z,21.4
2017-03-02T01:06:44.541Z,21.47
2017-03-02T01:07:44.702Z,21.38
2017-03-02T01:08:45.135Z,21.32
2017-03-02T01:09:44.363Z,21.31
2017-03-02T01:10:45.165Z,21.29
2017-03-02T01:11:45.449Z,21.32
2017-03-02T01:12:44.842Z,21.32
2017-03-02T01:13:45.252Z,21.37
2017-03-02T01:14:44.888Z,21.34
2017-03-02T01:15:45.308Z,21.38
2017-03-02T01:16:44.928Z,21.35
2017-03-02T01:17:44.965Z,21.38
2017-03-02T01:18:44.600Z,21.4
2017-03-02T01:19:45.020Z,21.34
2017-03-02T01:20:45.455Z,21.32
2017-03-02T01:21:45.072Z,21.42
2017-03-02T01:22:45.507Z,21.4
2017-03-02T01:23:45.527Z,21.4
2017-03-02T01:24:45.552Z,21.37
2017-03-02T01:25:45.200Z,21.37
2017-03-02T01:26:44.825Z,21.32
2017-03-02T01:27:45.657Z,21.43
2017-03-02T01:28:45.279Z,21.31
2017-03-02T01:29:44.900Z,21.42
2017-03-02T01:30:45.342Z,21.31
2017-03-02T01:31:45.754Z,21.38
2017-03-02T01:32:45.006Z,21.29
2017-03-02T01:33:45.403Z,21.31
2017-03-02T01:34:45.428Z,21.35
2017-03-02T01:35:45.849Z,21.35
2017-03-02T01:36:45.492Z,21.34
2017-03-02T01:37:45.514Z,21.22
2017-03-02T01:38:45.550Z,21.31
2017-03-02T01:39:45.567Z,21.24
2017-03-02T01:40:45.984Z,21.4
2017-03-02T01:41:45.625Z,21.35
2017-03-02T01:42:45.246Z,21.25
2017-03-02T01:43:46.070Z,21.37
2017-03-02T01:44:45.695Z,21.28
2017-03-02T01:45:46.126Z,21.28
2017-03-02T01:46:46.153Z,21.24
2017-03-02T01:47:45.785Z,21.34
2017-03-02T01:48:46.219Z,21.29
2017-03-02T01:49:45.835Z,21.24
2017-03-02T01:50:46.280Z,21.24
2017-03-02T01:51:45.888Z,21.34
2017-03-02T01:52:46.348Z,21.24
2017-03-02T01:53:46.342Z,21.31
2017-03-02T01:54:45.583Z,21.28
2017-03-02T01:55:46.002Z,21.27
2017-03-02T01:56:46.424Z,21.21
2017-03-02T01:57:46.065Z,21.28
2017-03-02T01:58:46.073Z,21.28
2017-03-02T01:59:45.714Z,21.31
2017-03-02T02:00:46.143Z,21.29
2017-03-02T02:01:46.580Z,21.25
2017-03-02T02:02:45.801Z,21.22
2017-03-02T02:03:46.606Z,21.19
2017-03-02T02:04:46.650Z,21.14
2017-03-02T02:05:45.888Z,21.22
2017-03-02T02:06:45.925Z,21.24
2017-03-02T02:07:46.721Z,21.17
2017-03-02T02:08:46.750Z,21.19
2017-03-02T02:09:46.778Z,21.27
2017-03-02T02:10:46.807Z,21.21
2017-03-02T02:11:46.828Z,21.17
2017-03-02T02:12:46.856Z,21.16
2017-03-02T02:13:46.094Z,21.21
2017-03-02T02:14:46.126Z,21.12
2017-03-02T02:15:46.559Z,21.21
2017-03-02T02:16:46.177Z,21.14
2017-03-02T02:17:47.264Z,21.24
2017-03-02T02:18:47.030Z,21.17
2017-03-02T02:19:47.050Z,21.17
2017-03-02T02:20:46.684Z,21.17
2017-03-02T02:21:47.100Z,21.14
2017-03-02T02:22:47.376Z,21.13
2017-03-02T02:23:47.145Z,21.13
2017-03-02T02:24:46.790Z,21.09
2017-03-02T02:25:47.207Z,21.14
2017-03-02T02:26:46.852Z,21.1
2017-03-02T02:27:47.508Z,21.17
2017-03-02T02:28:47.305Z,21.13
2017-03-02T02:29:47.317Z,21.07
2017-03-02T02:30:47.343Z,21.07
2017-03-02T02:31:47.380Z,21.07
2017-03-02T02:32:46.859Z,21.03
2017-03-02T02:33:47.021Z,21.07
2017-03-02T02:34:46.654Z,21.03
2017-03-02T02:35:46.691Z,21.12
2017-03-02T02:36:47.104Z,21.04
2017-03-02T02:37:47.788Z,21.04
2017-03-02T02:38:47.169Z,21.01
2017-03-02T02:39:47.594Z,21.06
2017-03-02T02:40:47.227Z,21.07
2017-03-02T02:41:47.251Z,21.03
2017-03-02T02:42:47.516Z,20.98
2017-03-02T02:43:47.693Z,21.01
2017-03-02T02:44:47.726Z,21.04
2017-03-02T02:45:46.958Z,20.97
2017-03-02T02:46:47.783Z,21.01
2017-03-02T02:47:48.052Z,21.01
2017-03-02T02:48:47.445Z,21.06
2017-03-02T02:49:47.855Z,21.04
2017-03-02T02:50:47.498Z,21.04
2017-03-02T02:51:47.916Z,21.03
2017-03-02T02:52:47.791Z,20.97
2017-03-02T02:53:47.573Z,20.94
2017-03-02T02:54:47.989Z,20.98
2017-03-02T02:55:47.631Z,20.98
2017-03-02T02:56:47.250Z,20.95
2017-03-02T02:57:47.932Z,20.98
2017-03-02T02:58:47.701Z,21.03
2017-03-02T02:59:47.358Z,21.01
2017-03-02T03:00:48.150Z,20.97
2017-03-02T03:01:47.787Z,20.95
2017-03-02T03:02:48.075Z,20.99
2017-03-02T03:03:47.448Z,20.97
2017-03-02T03:04:47.861Z,20.97
2017-03-02T03:05:47.513Z,20.98
2017-03-02T03:06:47.532Z,20.92
2017-03-02T03:07:48.592Z,21.01
2017-03-02T03:08:47.984Z,20.89
2017-03-02T03:09:47.997Z,20.94
2017-03-02T03:10:48.022Z,21.06
2017-03-02T03:11:48.055Z,21.03
2017-03-02T03:12:48.730Z,20.94
2017-03-02T03:13:48.516Z,21.03
2017-03-02T03:14:48.528Z,20.97
2017-03-02T03:15:47.769Z,20.94
2017-03-02T03:16:48.187Z,20.97
2017-03-02T03:17:47.819Z,20.89
2017-03-02T03:18:48.237Z,20.97
2017-03-02T03:19:47.869Z,20.97
2017-03-02T03:20:48.701Z,20.99
2017-03-02T03:21:48.329Z,20.99
2017-03-02T03:22:48.347Z,20.88
2017-03-02T03:23:48.773Z,20.95
2017-03-02T03:24:48.800Z,20.87
2017-03-02T03:25:48.429Z,20.88
2017-03-02T03:26:48.850Z,20.85
2017-03-02T03:27:48.103Z,20.95
2017-03-02T03:28:48.903Z,20.88
2017-03-02T03:29:48.948Z,20.84
2017-03-02T03:30:48.572Z,20.89
2017-03-02T03:31:48.229Z,20.91
2017-03-02T03:32:49.017Z,20.92
2017-03-02T03:33:48.651Z,20.88
2017-03-02T03:34:49.062Z,20.91
2017-03-02T03:35:49.103Z,20.91
2017-03-02T03:36:48.325Z,20.89
2017-03-02T03:37:48.770Z,20.89
2017-03-02T03:38:49.391Z,20.88
2017-03-02T03:39:48.804Z,20.89
2017-03-02T03:40:49.236Z,20.85
2017-03-02T03:41:49.260Z,20.88
2017-03-02T03:42:48.902Z,20.84
2017-03-02T03:43:49.315Z,20.92
2017-03-02T03:44:49.343Z,20.87
2017-03-02T03:45:48.966Z,20.92
2017-03-02T03:46:48.593Z,20.88
2017-03-02T03:47:48.634Z,20.91
2017-03-02T03:48:49.045Z,20.87
2017-03-02T03:49:49.077Z,20.8
2017-03-02T03:50:48.699Z,20.82
2017-03-02T03:51:48.731Z,20.87
2017-03-02T03:52:49.573Z,20.82
2017-03-02T03:53:49.578Z,20.88
2017-03-02T03:54:49.234Z,20.82
2017-03-02T03:55:49.664Z,20.82
2017-03-02T03:56:48.868Z,20.85
2017-03-02T03:57:48.889Z,20.82
2017-03-02T03:58:49.973Z,20.8
2017-03-02T03:59:49.357Z,20.82
2017-03-02T04:00:49.774Z,20.73
2017-03-02T04:01:49.792Z,20.79
2017-03-02T04:02:49.424Z,20.8
2017-03-02T04:03:50.102Z,20.76
2017-03-02T04:04:49.874Z,20.8
2017-03-02T04:05:49.124Z,20.76
2017-03-02T04:06:49.935Z,20.74
2017-03-02T04:07:49.556Z,20.77
2017-03-02T04:08:49.845Z,20.76
2017-03-02T04:09:50.018Z,20.67
2017-03-02T04:10:50.038Z,20.76
2017-03-02T04:11:49.655Z,20.77
2017-03-02T04:12:50.080Z,20.69
2017-03-02T04:13:49.973Z,20.74
2017-03-02T04:14:50.141Z,20.76
2017-03-02T04:15:50.165Z,20.7
2017-03-02T04:16:50.210Z,20.76
2017-03-02T04:17:49.838Z,20.7
2017-03-02T04:18:50.508Z,20.79
2017-03-02T04:19:49.488Z,20.69
2017-03-02T04:20:49.905Z,20.77
2017-03-02T04:21:49.930Z,20.73
2017-03-02T04:22:50.370Z,20.7
2017-03-02T04:23:50.239Z,20.7
2017-03-02T04:24:50.412Z,20.73
2017-03-02T04:25:50.437Z,20.72
2017-03-02T04:26:50.077Z,20.67
2017-03-02T04:27:50.086Z,20.7
2017-03-02T04:28:50.006Z,20.72
2017-03-02T04:29:50.151Z,20.74
2017-03-02T04:30:49.772Z,20.67
2017-03-02T04:31:49.800Z,20.72
2017-03-02T04:32:50.622Z,20.77
2017-03-02T04:33:50.506Z,20.76
2017-03-02T04:34:50.275Z,20.73
2017-03-02T04:35:50.720Z,20.66
2017-03-02T04:36:50.712Z,20.67
2017-03-02T04:37:50.779Z,20.62
2017-03-02T04:38:51.027Z,20.73
2017-03-02T04:39:50.014Z,20.61
2017-03-02T04:40:51.013Z,20.62
2017-03-02T04:41:50.892Z,20.66
2017-03-02T04:42:50.900Z,20.7
2017-03-02T04:43:50.372Z,20.66
2017-03-02T04:44:50.183Z,20.64
2017-03-02T04:45:50.967Z,20.59
2017-03-02T04:46:50.992Z,20.64
2017-03-02T04:47:50.649Z,20.58
2017-03-02T04:48:50.905Z,20.58
2017-03-02T04:49:51.086Z,20.67
2017-03-02T04:50:50.703Z,20.66
2017-03-02T04:51:51.123Z,20.66
2017-03-02T04:52:51.152Z,20.67
2017-03-02T04:53:51.037Z,20.67
2017-03-02T04:54:50.812Z,20.64
2017-03-02T04:55:51.258Z,20.59
2017-03-02T04:56:50.875Z,20.62
2017-03-02T04:57:51.299Z,20.59
2017-03-02T04:58:51.569Z,20.62
2017-03-02T04:59:51.357Z,20.58
2017-03-02T05:00:50.994Z,20.61
2017-03-02T05:01:51.003Z,20.61
2017-03-02T05:02:51.036Z,20.59
2017-03-02T05:03:51.303Z,20.66
2017-03-02T05:04:50.685Z,20.61
2017-03-02T05:05:51.494Z,20.66
2017-03-02T05:06:51.139Z,20.61
2017-03-02T05:07:51.163Z,20.54
2017-03-02T05:08:50.794Z,20.55
2017-03-02T05:09:51.626Z,20.55
2017-03-02T05:10:51.273Z,20.61
2017-03-02T05:11:50.866Z,20.58
2017-03-02T05:12:51.307Z,20.55
2017-03-02T05:13:51.324Z,20.52
2017-03-02T05:14:51.347Z,20.54
2017-03-02T05:15:51.773Z,20.51
2017-03-02T05:16:51.787Z,20.52
2017-03-02T05:17:51.819Z,20.58
2017-03-02T05:18:51.851Z,20.57
2017-03-02T05:19:51.487Z,20.57
2017-03-02T05:20:51.905Z,20.54
2017-03-02T05:21:51.925Z,20.55
2017-03-02T05:22:51.968Z,20.55
2017-03-02T05:23:51.206Z,20.58
2017-03-02T05:24:51.612Z,20.61
2017-03-02T05:25:52.037Z,20.58
2017-03-02T05:26:51.661Z,20.62
2017-03-02T05:27:52.113Z,20.58
2017-03-02T05:28:51.727Z,20.59
2017-03-02T05:29:52.147Z,20.66
2017-03-02T05:30:51.768Z,20.59
2017-03-02T05:31:52.188Z,20.58
2017-03-02T05:32:51.434Z,20.66
2017-03-02T05:33:52.247Z,20.62
2017-03-02T05:34:51.875Z,20.64
2017-03-02T05:35:51.513Z,20.62
2017-03-02T05:36:51.529Z,20.62
2017-03-02T05:37:52.348Z,20.61
2017-03-02T05:38:51.985Z,20.66
2017-03-02T05:39:52.651Z,20.61
2017-03-02T05:40:51.643Z,20.77
2017-03-02T05:41:52.067Z,20.72
2017-03-02T05:42:52.093Z,20.73
2017-03-02T05:43:52.126Z,20.77
2017-03-02T05:44:51.991Z,20.7
2017-03-02T05:45:52.168Z,20.64
2017-03-02T05:46:51.817Z,20.76
2017-03-02T05:47:52.240Z,20.66
2017-03-02T05:48:52.666Z,20.77
2017-03-02T05:49:52.129Z,20.7
2017-03-02T05:50:52.299Z,20.74
2017-03-02T05:51:52.327Z,20.82
2017-03-02T05:52:51.988Z,20.77
2017-03-02T05:53:52.784Z,20.87
2017-03-02T05:54:52.667Z,20.91
2017-03-02T05:55:52.054Z,20.88
2017-03-02T05:56:52.856Z,20.85
2017-03-02T05:57:52.488Z,20.87
2017-03-02T05:58:52.521Z,20.87
2017-03-02T05:59:52.789Z,20.87
2017-03-02T06:00:52.964Z,20.97
2017-03-02T06:01:52.592Z,20.97
2017-03-02T06:02:52.628Z,20.94
2017-03-02T06:03:52.657Z,20.91
2017-03-02T06:04:53.326Z,20.88
2017-03-02T06:05:52.299Z,20.99
2017-03-02T06:06:52.741Z,20.95
2017-03-02T06:07:52.755Z,20.97
2017-03-02T06:08:52.413Z,20.98
2017-03-02T06:09:53.466Z,21.12
2017-03-02T06:10:52.837Z,20.94
2017-03-02T06:11:53.262Z,21.06
2017-03-02T06:12:53.296Z,21.06
2017-03-02T06:13:52.517Z,21.1
2017-03-02T06:14:53.621Z,21.09
2017-03-02T06:15:52.970Z,21.04
2017-03-02T06:16:52.591Z,21.06
2017-03-02T06:17:53.032Z,21.13
2017-03-02T06:18:53.053Z,21.13
2017-03-02T06:19:52.929Z,21.13
2017-03-02T06:20:53.103Z,21.06
2017-03-02T06:21:52.730Z,21.17
2017-03-02T06:22:53.158Z,21.12
2017-03-02T06:23:53.209Z,21.12
2017-03-02T06:24:53.457Z,21.21
2017-03-02T06:25:52.842Z,21.19
2017-03-02T06:26:53.651Z,21.21
2017-03-02T06:27:52.887Z,21.17
2017-03-02T06:28:53.716Z,21.31
2017-03-02T06:29:54.020Z,21.29
2017-03-02T06:30:52.986Z,21.24
2017-03-02T06:31:53.394Z,21.31
2017-03-02T06:32:53.023Z,21.29
2017-03-02T06:33:53.452Z,21.27
2017-03-02T06:34:53.727Z,21.27
2017-03-02T06:35:53.897Z,21.25
2017-03-02T06:36:53.525Z,21.38
2017-03-02T06:37:53.950Z,21.28
2017-03-02T06:38:53.587Z,21.42
2017-03-02T06:39:53.463Z,21.32
2017-03-02T06:40:54.032Z,21.4
2017-03-02T06:41:54.066Z,21.32
2017-03-02T06:42:54.090Z,21.4
2017-03-02T06:43:54.111Z,21.34
2017-03-02T06:44:54.001Z,21.37
2017-03-02T06:45:53.761Z,21.34
2017-03-02T06:46:53.797Z,21.31
2017-03-02T06:47:54.234Z,21.35
2017-03-02T06:48:54.243Z,21.38
2017-03-02T06:49:54.139Z,21.38
2017-03-02T06:50:54.300Z,21.4
2017-03-02T06:51:53.536Z,21.34
2017-03-02T06:52:53.954Z,21.31
2017-03-02T06:53:54.387Z,21.37
2017-03-02T06:54:54.657Z,21.35
2017-03-02T06:55:54.035Z,21.28
2017-03-02T06:56:54.064Z,21.29
2017-03-02T06:57:54.094Z,21.29
2017-03-02T06:58:54.527Z,21.29
2017-03-02T06:59:54.394Z,21.29
2017-03-02T07:00:54.634Z,21.29
2017-03-02T07:01:53.807Z,21.4
2017-03-02T07:02:53.841Z,21.35
2017-03-02T07:03:54.646Z,21.46
2017-03-02T07:04:53.891Z,21.74
2017-03-02T07:05:54.331Z,21.94
2017-03-02T07:06:54.739Z,22.06
2017-03-02T07:07:54.356Z,22.28
2017-03-02T07:08:54.402Z,22.4
2017-03-02T07:09:54.026Z,22.61
2017-03-02T07:10:54.835Z,22.75
2017-03-02T07:11:54.484Z,22.85
2017-03-02T07:12:54.510Z,22.97
2017-03-02T07:13:54.917Z,23.05
2017-03-02T07:14:54.158Z,23.02
2017-03-02T07:15:54.201Z,23.07
2017-03-02T07:16:55.013Z,23.27
2017-03-02T07:17:54.629Z,23.22
2017-03-02T07:18:54.281Z,23.25
2017-03-02T07:19:55.089Z,23.33
2017-03-02T07:20:54.722Z,23.47
2017-03-02T07:21:54.766Z,23.55
2017-03-02T07:22:54.772Z,23.63
2017-03-02T07:23:54.793Z,23.6
2017-03-02T07:24:55.217Z,23.33
2017-03-02T07:25:55.266Z,23.27
2017-03-02T07:26:54.892Z,23.12
2017-03-02T07:27:54.901Z,23.05
2017-03-02T07:28:54.935Z,23.05
2017-03-02T07:29:54.960Z,22.98
2017-03-02T07:30:54.980Z,22.94
2017-03-02T07:31:55.410Z,22.85
2017-03-02T07:32:55.041Z,22.85
2017-03-02T07:33:55.089Z,22.88
2017-03-02T07:34:55.492Z,22.8
2017-03-02T07:35:54.733Z,22.83
2017-03-02T07:36:55.150Z,22.75
2017-03-02T07:37:55.595Z,22.72
2017-03-02T07:38:55.603Z,22.58
2017-03-02T07:39:55.629Z,22.6
2017-03-02T07:40:54.864Z,22.6
2017-03-02T07:41:55.288Z,22.57
2017-03-02T07:42:55.313Z,22.4
2017-03-02T07:43:55.759Z,22.37
2017-03-02T07:44:55.375Z,22.3
2017-03-02T07:45:55.401Z,22.33
2017-03-02T07:46:55.424Z,22.24
2017-03-02T07:47:55.485Z,22.2
2017-03-02T07:48:55.478Z,22.12
2017-03-02T07:49:55.527Z,22.14
2017-03-02T07:50:55.936Z,22.07
2017-03-02T07:51:55.554Z,22.05
2017-03-02T07:52:55.604Z,22.02
2017-03-02T07:53:56.019Z,22
2017-03-02T07:54:55.662Z,21.84
2017-03-02T07:55:55.723Z,21.9
2017-03-02T07:56:55.700Z,21.88
2017-03-02T07:57:55.329Z,21.77
2017-03-02T07:58:55.785Z,21.84
2017-03-02T07:59:56.182Z,21.84
2017-03-02T08:00:56.217Z,21.75
2017-03-02T08:01:55.459Z,21.72
2017-03-02T08:02:55.878Z,21.68
2017-03-02T08:03:55.501Z,21.71
2017-03-02T08:04:56.322Z,21.74
2017-03-02T08:05:55.954Z,21.58
2017-03-02T08:06:55.971Z,21.62
2017-03-02T08:07:55.600Z,21.59
2017-03-02T08:08:56.021Z,21.54
2017-03-02T08:09:56.062Z,21.56
2017-03-02T08:10:56.350Z,21.62
2017-03-02T08:11:56.515Z,21.56
2017-03-02T08:12:56.545Z,21.56
2017-03-02T08:13:56.164Z,21.58
2017-03-02T08:14:56.205Z,21.56
2017-03-02T08:15:56.474Z,21.58
2017-03-02T08:16:56.239Z,21.58
2017-03-02T08:17:56.268Z,21.61
2017-03-02T08:18:56.428Z,21.54
2017-03-02T08:19:56.348Z,21.54
2017-03-02T08:20:56.606Z,21.49
2017-03-02T08:21:56.390Z,21.43
2017-03-02T08:22:56.430Z,21.43
2017-03-02T08:23:56.453Z,21.47
2017-03-02T08:24:56.864Z,21.4
2017-03-02T08:25:57.158Z,21.32
2017-03-02T08:26:56.522Z,21.32
2017-03-02T08:27:56.559Z,21.37
2017-03-02T08:28:56.572Z,21.34
2017-03-02T08:29:57.033Z,21.35
2017-03-02T08:30:56.873Z,21.35
2017-03-02T08:31:56.653Z,21.4
2017-03-02T08:32:56.692Z,21.34
2017-03-02T08:33:57.099Z,21.31
2017-03-02T08:34:56.748Z,21.37
2017-03-02T08:35:57.407Z,21.31
2017-03-02T08:36:56.797Z,21.29
2017-03-02T08:37:56.424Z,21.25
2017-03-02T08:38:57.258Z,21.28
2017-03-02T08:39:56.867Z,21.22
2017-03-02T08:40:57.148Z,21.28
2017-03-02T08:41:56.925Z,21.27
2017-03-02T08:42:57.336Z,21.27
2017-03-02T08:43:57.365Z,21.31
2017-03-02T08:44:57.017Z,21.37
2017-03-02T08:45:57.672Z,21.24
2017-03-02T08:46:57.060Z,21.28
2017-03-02T08:47:56.673Z,21.24
2017-03-02T08:48:56.737Z,21.35
2017-03-02T08:49:57.135Z,21.29
2017-03-02T08:50:57.815Z,21.24
2017-03-02T08:51:56.840Z,21.29
2017-03-02T08:52:57.226Z,21.32
2017-03-02T08:53:57.670Z,21.22
2017-03-02T08:54:57.270Z,21.19
2017-03-02T08:55:57.959Z,21.21
2017-03-02T08:56:57.320Z,21.22
2017-03-02T08:57:57.751Z,21.13
2017-03-02T08:58:56.989Z,21.37
2017-03-02T08:59:57.803Z,21.5
2017-03-02T09:00:57.025Z,21.4
2017-03-02T09:01:57.456Z,21.42
2017-03-02T09:02:57.877Z,21.42
2017-03-02T09:03:57.906Z,21.35
2017-03-02T09:04:57.558Z,21.35
2017-03-02T09:05:57.571Z,21.43
2017-03-02T09:06:57.596Z,21.32
2017-03-02T09:07:57.221Z,21.28
2017-03-02T09:08:57.251Z,21.32
2017-03-02T09:09:58.066Z,21.34
2017-03-02T09:10:57.695Z,21.24
2017-03-02T09:11:57.726Z,21.22
2017-03-02T09:12:57.756Z,21.25
2017-03-02T09:13:58.177Z,21.28
2017-03-02T09:14:57.861Z,21.25
2017-03-02T09:15:57.445Z,21.22
2017-03-02T09:16:57.859Z,21.28
2017-03-02T09:17:57.912Z,21.28
2017-03-02T09:18:57.513Z,21.34
2017-03-02T09:19:58.002Z,21.29
2017-03-02T09:20:57.986Z,21.22
2017-03-02T09:21:58.387Z,21.28
2017-03-02T09:22:58.416Z,21.34
2017-03-02T09:23:58.439Z,21.38
2017-03-02T09:24:58.473Z,21.31
2017-03-02T09:25:58.106Z,21.34
2017-03-02T09:26:58.131Z,21.4
2017-03-02T09:27:58.162Z,21.46
2017-03-02T09:28:58.584Z,21.32
2017-03-02T09:29:58.613Z,21.4
2017-03-02T09:30:58.635Z,21.4
2017-03-02T09:31:58.271Z,21.32
2017-03-02T09:32:57.892Z,21.43
2017-03-02T09:33:58.320Z,21.25
2017-03-02T09:34:57.956Z,21.38
2017-03-02T09:35:58.814Z,21.43
2017-03-02T09:36:58.406Z,21.38
2017-03-02T09:37:58.430Z,21.38
2017-03-02T09:38:58.068Z,21.38
2017-03-02T09:39:58.480Z,21.4
2017-03-02T09:40:58.905Z,21.4
2017-03-02T09:41:59.193Z,21.37
2017-03-02T09:42:58.579Z,21.43
2017-03-02T09:43:58.996Z,21.4
2017-03-02T09:44:59.037Z,21.37
2017-03-02T09:45:59.051Z,21.37
2017-03-02T09:46:58.920Z,21.46
2017-03-02T09:47:59.111Z,21.43
2017-03-02T09:48:58.751Z,21.38
2017-03-02T09:49:59.155Z,21.35
2017-03-02T09:50:58.794Z,21.4
2017-03-02T09:51:59.073Z,21.32
2017-03-02T09:52:59.231Z,21.46
2017-03-02T09:53:58.886Z,21.35
2017-03-02T09:54:59.296Z,21.35
2017-03-02T09:55:59.317Z,21.4
2017-03-02T09:56:58.797Z,21.32
2017-03-02T09:57:58.570Z,21.32
2017-03-02T09:58:59.032Z,21.35
2017-03-02T09:59:59.039Z,21.28
2017-03-02T10:00:59.056Z,21.34
2017-03-02T10:01:59.361Z,21.24
2017-03-02T10:02:59.105Z,21.35
2017-03-02T10:03:59.139Z,21.31
2017-03-02T10:04:59.162Z,21.24
2017-03-02T10:05:58.800Z,21.27
2017-03-02T10:06:59.860Z,21.24
2017-03-02T10:07:59.246Z,21.27
2017-03-02T10:08:59.290Z,21.25
2017-03-02T10:09:58.899Z,21.25
2017-03-02T10:10:59.732Z,21.22
2017-03-02T10:11:59.601Z,21.16
2017-03-02T10:12:58.981Z,21.12
2017-03-02T10:13:59.801Z,21.17
2017-03-02T10:14:59.831Z,21.17
2017-03-02T10:15:59.494Z,21.13
2017-03-02T10:17:00.160Z,21.12
2017-03-02T10:17:59.517Z,21.13
2017-03-02T10:18:59.165Z,21.17
2017-03-02T10:19:59.966Z,21.06
2017-03-02T10:20:59.610Z,21.07
2017-03-02T10:21:59.868Z,21.07
2017-03-02T10:22:59.255Z,21.04
2017-03-02T10:23:59.286Z,21.06
2017-03-02T10:25:00.103Z,20.95
2017-03-02T10:26:00.135Z,21.01
2017-03-02T10:26:59.632Z,21.09
2017-03-02T10:27:59.780Z,21.1
2017-03-02T10:29:00.218Z,21.16
2017-03-02T10:29:59.471Z,21.14
2017-03-02T10:30:59.462Z,21.14
2017-03-02T10:32:00.139Z,21.24
2017-03-02T10:32:59.917Z,21.19
2017-03-02T10:33:59.941Z,21.16
2017-03-02T10:34:59.970Z,21.21
2017-03-02T10:35:59.995Z,21.29
2017-03-02T10:36:59.893Z,21.14
2017-03-02T10:38:00.065Z,21.21
2017-03-02T10:39:00.477Z,21.27
2017-03-02T10:39:59.713Z,21.25
2017-03-02T10:40:59.735Z,21.25
2017-03-02T10:42:00.807Z,21.21
2017-03-02T10:43:00.196Z,21.25
2017-03-02T10:44:00.609Z,21.35
2017-03-02T10:44:59.847Z,21.35
2017-03-02T10:46:00.665Z,21.46
2017-03-02T10:47:00.555Z,21.4
2017-03-02T10:48:00.728Z,21.42
2017-03-02T10:48:59.973Z,21.43
2017-03-02T10:50:00.766Z,21.46
2017-03-02T10:51:00.439Z,21.37
2017-03-02T10:52:01.079Z,21.44
2017-03-02T10:53:00.854Z,21.44
2017-03-02T10:54:00.105Z,21.46
2017-03-02T10:55:00.523Z,21.5
2017-03-02T10:56:00.558Z,21.5
2017-03-02T10:57:00.835Z,21.43
2017-03-02T10:58:00.588Z,21.44
2017-03-02T10:59:00.232Z,21.43
2017-03-02T11:00:01.048Z,21.42
2017-03-02T11:01:01.086Z,21.42
2017-03-02T11:02:00.950Z,21.34
2017-03-02T11:03:00.731Z,21.46
2017-03-02T11:04:00.361Z,21.37
2017-03-02T11:05:01.197Z,21.38
2017-03-02T11:06:00.812Z,21.38
2017-03-02T11:07:01.498Z,21.27
2017-03-02T11:08:00.859Z,21.29
2017-03-02T11:09:00.920Z,21.21
2017-03-02T11:10:00.929Z,21.28
2017-03-02T11:11:00.953Z,21.24
2017-03-02T11:12:00.975Z,21.29
2017-03-02T11:13:01.412Z,21.28
2017-03-02T11:14:01.424Z,21.29
2017-03-02T11:15:01.057Z,21.25
2017-03-02T11:16:00.693Z,21.19
2017-03-02T11:17:01.511Z,21.22
2017-03-02T11:18:01.534Z,21.17
2017-03-02T11:19:01.568Z,21.21
2017-03-02T11:20:01.601Z,21.19
2017-03-02T11:21:00.817Z,21.25
2017-03-02T11:22:00.854Z,21.27
2017-03-02T11:23:01.287Z,21.37
2017-03-02T11:24:00.916Z,21.35
2017-03-02T11:25:01.369Z,21.34
2017-03-02T11:26:00.957Z,21.28
2017-03-02T11:27:01.786Z,21.34
2017-03-02T11:28:01.018Z,21.32
2017-03-02T11:29:01.052Z,21.4
2017-03-02T11:30:01.464Z,21.35
2017-03-02T11:31:01.094Z,21.38
2017-03-02T11:32:01.517Z,21.53
2017-03-02T11:33:01.541Z,21.53
2017-03-02T11:34:01.583Z,21.53
2017-03-02T11:35:01.608Z,21.58
2017-03-02T11:36:02.030Z,21.68
2017-03-02T11:37:02.058Z,21.67
2017-03-02T11:38:02.079Z,21.69
2017-03-02T11:39:02.103Z,21.8
2017-03-02T11:40:02.127Z,21.82
2017-03-02T11:41:01.765Z,21.9
2017-03-02T11:42:02.182Z,21.86
2017-03-02T11:43:02.075Z,21.96
2017-03-02T11:44:02.247Z,21.9
2017-03-02T11:45:02.278Z,22.06
2017-03-02T11:46:02.308Z,22.06
2017-03-02T11:47:01.530Z,22.09
2017-03-02T11:48:02.606Z,22.1
2017-03-02T11:49:02.387Z,22.14
2017-03-02T11:50:02.012Z,22.17
2017-03-02T11:51:02.434Z,22.22
2017-03-02T11:52:02.461Z,22.28
2017-03-02T11:53:02.354Z,22.27
2017-03-02T11:54:02.147Z,22.36
2017-03-02T11:55:02.148Z,22.42
2017-03-02T11:56:02.188Z,22.47
2017-03-02T11:57:01.809Z,22.52
2017-03-02T11:58:02.150Z,22.54
2017-03-02T11:59:01.899Z,22.67
2017-03-02T12:00:02.292Z,22.72
2017-03-02T12:01:01.948Z,22.73
2017-03-02T12:02:02.374Z,22.9
2017-03-02T12:03:02.226Z,22.86
2017-03-02T12:04:02.803Z,22.97
2017-03-02T12:05:02.835Z,23.04
2017-03-02T12:06:02.467Z,23.16
2017-03-02T12:07:02.479Z,23.27
2017-03-02T12:08:03.161Z,23.32
2017-03-02T12:09:02.929Z,23.5
2017-03-02T12:10:02.580Z,23.51
2017-03-02T12:11:03.000Z,23.58
2017-03-02T12:12:02.620Z,23.73
2017-03-02T12:13:03.298Z,23.78
2017-03-02T12:14:02.314Z,23.76
2017-03-02T12:15:03.102Z,23.79
2017-03-02T12:16:03.135Z,23.87
2017-03-02T12:17:02.365Z,23.8
2017-03-02T12:18:03.061Z,23.75
2017-03-02T12:19:03.249Z,23.7
2017-03-02T12:20:02.847Z,23.69
2017-03-02T12:21:03.288Z,23.76
2017-03-02T12:22:02.916Z,23.69
2017-03-02T12:23:03.574Z,23.72
2017-03-02T12:24:02.594Z,23.66
2017-03-02T12:25:02.991Z,23.58
2017-03-02T12:26:03.429Z,23.53
2017-03-02T12:27:02.637Z,23.54
2017-03-02T12:28:03.329Z,23.47
2017-03-02T12:29:03.508Z,23.55
2017-03-02T12:30:03.135Z,23.65
2017-03-02T12:31:03.577Z,23.75
2017-03-02T12:32:03.592Z,23.72
2017-03-02T12:33:03.467Z,23.87
2017-03-02T12:34:03.282Z,23.83
2017-03-02T12:35:02.895Z,24.03
2017-03-02T12:36:03.700Z,24.16
2017-03-02T12:37:02.948Z,24.34
2017-03-02T12:38:04.020Z,24.47
2017-03-02T12:39:03.803Z,24.55
2017-03-02T12:40:03.416Z,24.73
2017-03-02T12:41:03.464Z,24.68
2017-03-02T12:42:03.888Z,24.8
2017-03-02T12:43:03.764Z,24.95
2017-03-02T12:44:03.137Z,25
2017-03-02T12:45:03.561Z,25.05
2017-03-02T12:46:04.003Z,25.13
2017-03-02T12:47:03.228Z,25.24
2017-03-02T12:48:03.905Z,25.15
2017-03-02T12:49:03.681Z,25.14
2017-03-02T12:50:04.118Z,25.18
2017-03-02T12:51:03.755Z,25.1
2017-03-02T12:52:03.371Z,25.14
2017-03-02T12:53:03.671Z,25.18
2017-03-02T12:54:04.221Z,25.15
2017-03-02T12:55:04.286Z,25.15